createdAt,value
2018-05-08T00:00:51.573Z,99926
2018-05-08T00:03:19.821Z,99904
2018-05-08T00:05:48.066Z,99909
2018-05-08T00:08:16.295Z,99904
2018-05-08T00:10:44.555Z,99909
2018-05-08T00:13:12.783Z,99897
2018-05-08T00:15:41.769Z,99886
2018-05-08T00:18:12.015Z,99891
2018-05-08T00:20:40.248Z,99881
2018-05-08T00:23:10.567Z,99883
2018-05-08T00:25:38.995Z,99880
2018-05-08T00:28:07.977Z,99877
2018-05-08T00:30:36.246Z,99868
2018-05-08T00:33:04.496Z,99871
2018-05-08T00:35:32.708Z,99861
2018-05-08T00:38:01.006Z,99864
2018-05-08T00:40:29.316Z,99861
2018-05-08T00:42:57.578Z,99853
2018-05-08T00:45:26.327Z,99846
2018-05-08T00:47:54.565Z,99849
2018-05-08T00:50:22.777Z,99845
2018-05-08T00:52:50.985Z,99839
2018-05-08T00:55:20.211Z,99846
2018-05-08T00:57:48.487Z,99836
2018-05-08T01:00:16.724Z,99841
2018-05-08T01:02:45.936Z,99835
2018-05-08T01:05:14.169Z,99841
2018-05-08T01:07:42.394Z,99837
2018-05-08T01:10:10.633Z,99847
2018-05-08T01:12:38.848Z,99828
2018-05-08T01:15:07.101Z,99811
2018-05-08T01:17:35.321Z,99826
2018-05-08T01:20:03.573Z,99830
2018-05-08T01:22:31.853Z,99812
2018-05-08T01:25:00.121Z,99826
2018-05-08T01:27:28.626Z,99813
2018-05-08T01:29:57.728Z,99820
2018-05-08T01:32:26.721Z,99821
2018-05-08T01:34:54.968Z,99801
2018-05-08T01:37:24.129Z,99803
2018-05-08T01:39:53.200Z,99808
2018-05-08T01:42:21.522Z,99805
2018-05-08T01:44:49.802Z,99795
2018-05-08T01:47:18.262Z,99797
2018-05-08T01:49:46.789Z,99789
2018-05-08T01:52:15.921Z,99789
2018-05-08T01:54:44.930Z,99788
2018-05-08T01:57:13.186Z,99786
2018-05-08T01:59:41.429Z,99784
2018-05-08T02:02:09.650Z,99788
2018-05-08T02:04:37.858Z,99787
2018-05-08T02:07:06.114Z,99779
2018-05-08T02:09:36.191Z,99779
2018-05-08T02:12:04.447Z,99771
2018-05-08T02:14:32.711Z,99772
2018-05-08T02:17:00.924Z,99767
2018-05-08T02:19:29.977Z,99776
2018-05-08T02:21:58.193Z,99761
2018-05-08T02:24:26.506Z,99761
2018-05-08T02:26:55.527Z,99756
2018-05-08T02:29:23.762Z,99755
2018-05-08T02:31:53.101Z,99740
2018-05-08T02:34:21.317Z,99747
2018-05-08T02:36:50.024Z,99740
2018-05-08T02:39:18.263Z,99744
2018-05-08T02:41:46.525Z,99745
2018-05-08T02:44:14.917Z,99740
2018-05-08T02:46:43.144Z,99744
2018-05-08T02:49:11.361Z,99743
2018-05-08T02:51:39.593Z,99746
2018-05-08T02:54:07.810Z,99733
2018-05-08T02:56:36.803Z,99742
2018-05-08T02:59:05.886Z,99738
2018-05-08T03:01:34.094Z,99729
2018-05-08T03:04:02.315Z,99731
2018-05-08T03:06:31.458Z,99731
2018-05-08T03:08:59.692Z,99724
2018-05-08T03:11:27.905Z,99725
2018-05-08T03:13:56.153Z,99725
2018-05-08T03:16:24.996Z,99631
2018-05-08T03:18:53.222Z,99714
2018-05-08T03:21:21.445Z,99718
2018-05-08T03:26:24.171Z,99709
2018-05-08T03:28:52.400Z,99709
2018-05-08T03:31:20.622Z,99710
2018-05-08T03:33:48.832Z,99700
2018-05-08T03:36:17.076Z,99705
2018-05-08T03:38:45.294Z,99697
2018-05-08T03:41:13.562Z,99699
2018-05-08T03:43:41.786Z,99693
2018-05-08T03:46:10.022Z,99695
2018-05-08T03:48:38.240Z,99692
2018-05-08T03:51:06.508Z,99688
2018-05-08T03:53:35.529Z,99687
2018-05-08T03:58:38.222Z,99682
2018-05-08T04:01:24.101Z,99681
2018-05-08T04:04:11.023Z,99677
2018-05-08T04:07:08.832Z,99673
2018-05-08T04:09:37.076Z,99680
2018-05-08T04:12:05.320Z,99671
2018-05-08T04:14:34.300Z,99674
2018-05-08T04:17:02.519Z,99667
2018-05-08T04:19:31.410Z,99669
2018-05-08T04:21:59.659Z,99668
2018-05-08T04:24:27.862Z,99669
2018-05-08T04:26:56.121Z,99675
2018-05-08T04:29:24.348Z,99667
2018-05-08T04:31:52.579Z,99663
2018-05-08T04:34:20.796Z,99662
2018-05-08T04:36:49.015Z,99666
2018-05-08T04:39:17.225Z,99670
2018-05-08T04:41:45.463Z,99664
2018-05-08T04:44:13.760Z,99655
2018-05-08T04:46:41.974Z,99664
2018-05-08T04:49:10.229Z,99663
2018-05-08T04:51:38.452Z,99662
2018-05-08T04:54:07.447Z,99655
2018-05-08T04:56:36.442Z,99658
2018-05-08T04:59:05.490Z,99652
2018-05-08T05:01:33.916Z,99658
2018-05-08T05:04:02.983Z,99659
2018-05-08T05:06:31.237Z,99649
2018-05-08T05:08:59.461Z,99656
2018-05-08T05:11:27.717Z,99653
2018-05-08T05:13:56.101Z,99659
2018-05-08T05:16:24.317Z,99649
2018-05-08T05:18:52.567Z,99645
2018-05-08T05:21:20.822Z,99646
2018-05-08T05:23:49.057Z,99646
2018-05-08T05:26:17.357Z,99647
2018-05-08T05:28:45.568Z,99645
2018-05-08T05:31:13.793Z,99640
2018-05-08T05:33:43.022Z,99634
2018-05-08T05:36:12.098Z,99633
2018-05-08T05:38:40.297Z,99639
2018-05-08T05:41:09.145Z,99640
2018-05-08T05:43:37.406Z,99638
2018-05-08T05:46:06.477Z,99639
2018-05-08T05:48:35.475Z,99635
2018-05-08T05:51:05.116Z,99636
2018-05-08T05:53:33.536Z,99643
2018-05-08T05:56:02.795Z,99636
2018-05-08T05:58:31.051Z,99573
2018-05-08T06:01:00.901Z,99645
2018-05-08T06:03:30.113Z,99636
2018-05-08T06:05:58.366Z,99640
2018-05-08T06:08:26.602Z,99640
2018-05-08T06:10:56.158Z,99642
2018-05-08T06:13:24.371Z,99637
2018-05-08T06:15:53.508Z,99645
2018-05-08T06:18:21.744Z,99633
2018-05-08T06:20:49.958Z,99639
2018-05-08T06:23:20.052Z,99634
2018-05-08T06:25:48.354Z,99631
2018-05-08T06:28:16.962Z,99636
2018-05-08T06:30:45.185Z,99625
2018-05-08T06:33:13.443Z,99630
2018-05-08T06:35:42.086Z,99628
2018-05-08T06:38:10.309Z,99630
2018-05-08T06:40:38.629Z,99631
2018-05-08T06:43:06.850Z,99633
2018-05-08T06:45:35.092Z,99638
2018-05-08T06:48:03.331Z,99633
2018-05-08T06:50:32.318Z,99633
2018-05-08T06:53:01.312Z,99636
2018-05-08T06:55:30.322Z,99630
2018-05-08T06:57:59.423Z,99635
2018-05-08T07:00:28.845Z,99642
2018-05-08T07:02:57.967Z,99634
2018-05-08T07:05:26.206Z,99632
2018-05-08T07:07:54.429Z,99633
2018-05-08T07:10:22.681Z,99635
2018-05-08T07:12:50.905Z,99638
2018-05-08T07:15:19.132Z,99643
2018-05-08T07:17:47.365Z,99641
2018-05-08T07:20:15.587Z,99642
2018-05-08T07:22:43.851Z,99644
2018-05-08T07:25:12.151Z,99641
2018-05-08T07:27:40.392Z,99639
2018-05-08T07:30:08.621Z,99644
2018-05-08T07:32:36.913Z,99648
2018-05-08T07:35:05.959Z,99637
2018-05-08T07:37:34.208Z,99641
2018-05-08T07:40:02.437Z,99640
2018-05-08T07:42:30.691Z,99639
2018-05-08T07:44:58.914Z,99639
2018-05-08T07:47:28.460Z,99629
2018-05-08T07:49:56.678Z,99631
2018-05-08T07:52:24.957Z,99635
2018-05-08T07:54:53.207Z,99633
2018-05-08T07:57:22.188Z,99631
2018-05-08T07:59:50.401Z,99634
2018-05-08T08:02:18.631Z,99636
2018-05-08T08:04:47.093Z,99637
2018-05-08T08:07:15.656Z,99635
2018-05-08T08:09:45.109Z,99634
2018-05-08T08:12:14.010Z,99631
2018-05-08T08:14:42.264Z,99641
2018-05-08T08:17:10.470Z,99637
2018-05-08T08:19:38.641Z,99629
2018-05-08T08:22:06.823Z,99640
2018-05-08T08:24:35.049Z,99636
2018-05-08T08:27:03.233Z,99635
2018-05-08T08:29:31.446Z,99627
2018-05-08T08:31:59.731Z,99622
2018-05-08T08:34:27.950Z,99632
2018-05-08T08:36:56.119Z,99624
2018-05-08T08:39:24.328Z,99626
2018-05-08T08:41:52.501Z,99616
2018-05-08T08:44:21.336Z,99613
2018-05-08T08:46:49.573Z,99617
2018-05-08T08:49:17.809Z,99615
2018-05-08T08:51:46.017Z,99613
2018-05-08T08:54:14.211Z,99620
2018-05-08T08:56:42.398Z,99614
2018-05-08T08:59:10.587Z,99615
2018-05-08T09:01:39.562Z,99614
2018-05-08T09:04:07.854Z,99607
2018-05-08T09:06:35.987Z,99606
2018-05-08T09:09:04.263Z,99593
2018-05-08T09:11:32.515Z,99591
2018-05-08T09:14:00.849Z,99582
2018-05-08T09:16:29.048Z,99579
2018-05-08T09:18:57.233Z,99577
2018-05-08T09:21:26.182Z,99571
2018-05-08T09:23:54.437Z,99570
2018-05-08T09:26:23.020Z,99565
2018-05-08T09:28:51.216Z,99554
2018-05-08T09:31:19.434Z,99551
2018-05-08T09:33:49.328Z,99560
2018-05-08T09:36:17.518Z,99478
2018-05-08T09:38:46.503Z,99549
2018-05-08T09:41:14.720Z,99537
2018-05-08T09:43:42.916Z,99553
2018-05-08T09:46:11.104Z,99545
2018-05-08T09:48:39.314Z,99546
2018-05-08T09:51:08.246Z,99544
2018-05-08T09:53:36.440Z,99551
2018-05-08T09:56:04.656Z,99529
2018-05-08T09:58:32.842Z,99534
2018-05-08T10:01:01.113Z,99536
2018-05-08T10:03:29.249Z,99527
2018-05-08T10:05:57.438Z,99521
2018-05-08T10:08:25.639Z,99516
2018-05-08T10:10:53.840Z,99514
2018-05-08T10:13:22.033Z,99508
2018-05-08T10:15:51.159Z,99511
2018-05-08T10:18:20.879Z,99509
2018-05-08T10:20:49.071Z,99508
2018-05-08T10:23:17.285Z,99519
2018-05-08T10:25:45.482Z,99508
2018-05-08T10:28:13.666Z,99521
2018-05-08T10:30:41.870Z,99494
2018-05-08T10:33:10.041Z,99504
2018-05-08T10:35:38.225Z,99503
2018-05-08T10:38:06.436Z,99503
2018-05-08T10:40:34.642Z,99499
2018-05-08T10:43:03.591Z,99502
2018-05-08T10:45:31.797Z,99515
2018-05-08T10:47:59.992Z,99511
2018-05-08T10:50:28.178Z,99506
2018-05-08T10:52:57.058Z,99500
2018-05-08T10:55:25.250Z,99500
2018-05-08T10:57:53.511Z,99504
2018-05-08T11:00:22.473Z,99501
2018-05-08T11:02:50.723Z,99506
2018-05-08T11:05:18.923Z,99495
2018-05-08T11:07:47.126Z,99495
2018-05-08T11:10:15.310Z,99493
2018-05-08T11:12:43.493Z,99489
2018-05-08T11:15:11.697Z,99492
2018-05-08T11:17:39.889Z,99489
2018-05-08T11:20:08.096Z,99493
2018-05-08T11:22:37.068Z,99481
2018-05-08T11:25:05.980Z,99476
2018-05-08T11:27:34.190Z,99487
2018-05-08T11:30:02.405Z,99469
2018-05-08T11:32:31.700Z,99470
2018-05-08T11:34:59.972Z,99481
2018-05-08T11:37:28.742Z,99468
2018-05-08T11:39:56.939Z,99476
2018-05-08T11:42:25.130Z,99464
2018-05-08T11:44:53.342Z,99445
2018-05-08T11:47:21.515Z,99461
2018-05-08T11:49:49.742Z,99452
2018-05-08T11:52:17.938Z,99452
2018-05-08T11:54:46.912Z,99444
2018-05-08T11:57:15.085Z,99445
2018-05-08T11:59:43.544Z,99451
2018-05-08T12:02:11.735Z,99457
2018-05-08T12:04:41.126Z,99453
2018-05-08T12:07:10.125Z,99450
2018-05-08T12:09:38.323Z,99451
2018-05-08T12:12:07.601Z,99447
2018-05-08T12:14:36.168Z,99445
2018-05-08T12:17:04.372Z,99440
2018-05-08T12:19:32.573Z,99439
2018-05-08T12:22:01.891Z,99432
2018-05-08T12:24:30.829Z,99419
2018-05-08T12:26:59.806Z,99410
2018-05-08T12:29:28.110Z,99436
2018-05-08T12:31:56.296Z,99427
2018-05-08T12:34:24.509Z,99431
2018-05-08T12:36:53.119Z,99427
2018-05-08T12:39:22.185Z,99434
2018-05-08T12:41:50.440Z,99436
2018-05-08T12:44:19.418Z,99420
2018-05-08T12:46:47.787Z,99415
2018-05-08T12:49:15.966Z,99423
2018-05-08T12:51:44.209Z,99419
2018-05-08T12:54:12.390Z,99425
2018-05-08T12:56:41.317Z,99423
2018-05-08T12:59:09.526Z,99420
2018-05-08T13:01:37.697Z,99421
2018-05-08T13:04:06.775Z,99428
2018-05-08T13:06:35.990Z,99432
2018-05-08T13:09:04.809Z,99424
2018-05-08T13:11:33.033Z,99420
2018-05-08T13:14:01.229Z,99419
2018-05-08T13:16:29.442Z,99419
2018-05-08T13:18:57.635Z,99426
2018-05-08T13:21:27.014Z,99428
2018-05-08T13:23:56.846Z,99426
2018-05-08T13:26:25.369Z,99423
2018-05-08T13:28:53.655Z,99421
2018-05-08T13:31:21.888Z,99422
2018-05-08T13:33:50.110Z,99428
2018-05-08T13:36:18.342Z,99435
2018-05-08T13:38:46.543Z,99432
2018-05-08T13:41:15.502Z,99424
2018-05-08T13:43:43.792Z,99430
2018-05-08T13:46:12.029Z,99433
2018-05-08T13:48:40.262Z,99435
2018-05-08T13:51:09.237Z,99435
2018-05-08T13:53:38.252Z,99435
2018-05-08T13:56:06.520Z,99438
2018-05-08T13:58:34.760Z,99438
2018-05-08T14:01:04.021Z,99423
2018-05-08T14:03:32.312Z,99432
2018-05-08T14:06:00.526Z,99425
2018-05-08T14:08:28.696Z,99435
2018-05-08T14:10:56.873Z,99440
2018-05-08T14:13:25.080Z,99443
2018-05-08T14:15:54.042Z,99439
2018-05-08T14:18:22.233Z,99460
2018-05-08T14:20:52.127Z,99454
2018-05-08T14:23:21.162Z,99478
2018-05-08T14:25:49.553Z,99467
2018-05-08T14:28:17.756Z,99446
2018-05-08T14:30:45.954Z,99453
2018-05-08T14:33:14.138Z,99436
2018-05-08T14:35:43.190Z,99464
2018-05-08T14:38:12.759Z,99467
2018-05-08T14:40:40.992Z,99444
2018-05-08T14:43:09.262Z,99463
2018-05-08T14:45:37.460Z,99472
2018-05-08T14:48:07.354Z,99476
2018-05-08T14:50:35.565Z,99478
2018-05-08T14:53:03.929Z,99481
2018-05-08T14:55:32.140Z,99467
2018-05-08T14:58:00.359Z,99469
2018-05-08T15:00:31.035Z,99465
2018-05-08T15:02:59.573Z,99472
2018-05-08T15:05:27.767Z,99480
2018-05-08T15:07:55.996Z,99469
2018-05-08T15:10:24.202Z,99478
2018-05-08T15:12:53.148Z,99468
2018-05-08T15:15:21.502Z,99480
2018-05-08T15:17:49.697Z,99471
2018-05-08T15:20:17.912Z,99479
2018-05-08T15:22:46.497Z,99489
2018-05-08T15:25:14.681Z,99481
2018-05-08T15:27:42.904Z,99487
2018-05-08T15:30:11.318Z,99479
2018-05-08T15:32:39.506Z,99478
2018-05-08T15:35:07.701Z,99485
2018-05-08T15:37:36.887Z,99495
2018-05-08T15:40:05.153Z,99478
2018-05-08T15:42:33.404Z,99474
2018-05-08T15:45:01.580Z,99471
2018-05-08T15:47:31.182Z,99481
2018-05-08T15:49:59.403Z,99486
2018-05-08T15:52:29.115Z,99494
2018-05-08T15:54:58.280Z,99485
2018-05-08T15:57:29.002Z,99491
2018-05-08T15:59:57.168Z,99497
2018-05-08T16:02:25.839Z,99491
2018-05-08T16:04:54.052Z,99491
2018-05-08T16:07:22.244Z,99504
2018-05-08T16:09:50.441Z,99495
2018-05-08T16:12:18.642Z,99503
2018-05-08T16:14:47.606Z,99497
2018-05-08T16:17:16.049Z,99511
2018-05-08T16:19:44.372Z,99506
2018-05-08T16:22:14.625Z,99507
2018-05-08T16:24:43.697Z,99514
2018-05-08T16:27:11.902Z,99526
2018-05-08T16:29:40.111Z,99529
2018-05-08T16:32:09.021Z,99525
2018-05-08T16:34:37.941Z,99528
2018-05-08T16:37:06.123Z,99526
2018-05-08T16:39:34.406Z,99533
2018-05-08T16:42:02.589Z,99542
2018-05-08T16:44:31.252Z,99543
2018-05-08T16:47:00.205Z,99539
2018-05-08T16:49:28.472Z,99552
2018-05-08T16:51:56.905Z,99544
2018-05-08T16:54:25.154Z,99545
2018-05-08T16:56:53.392Z,99557
2018-05-08T16:59:21.596Z,99555
2018-05-08T17:01:49.797Z,99551
2018-05-08T17:04:18.013Z,99548
2018-05-08T17:06:46.231Z,99550
2018-05-08T17:09:14.466Z,99562
2018-05-08T17:11:42.682Z,99563
2018-05-08T17:14:11.530Z,99591
2018-05-08T17:16:39.809Z,99576
2018-05-08T17:19:08.915Z,99580
2018-05-08T17:21:37.820Z,99573
2018-05-08T17:24:06.042Z,99571
2018-05-08T17:26:34.246Z,99582
2018-05-08T17:31:36.980Z,99581
2018-05-08T17:34:05.190Z,99564
2018-05-08T17:36:33.375Z,99574
2018-05-08T17:39:01.591Z,99585
2018-05-08T17:41:31.604Z,99575
2018-05-08T17:43:59.826Z,99576
2018-05-08T17:46:28.058Z,99555
2018-05-08T17:48:56.318Z,99544
2018-05-08T17:51:24.559Z,99548
2018-05-08T17:53:53.106Z,99566
2018-05-08T17:56:22.450Z,99561
2018-05-08T17:58:51.993Z,99569
2018-05-08T18:01:21.614Z,99565
2018-05-08T18:03:52.084Z,99567
2018-05-08T18:06:23.309Z,99578
2018-05-08T18:08:52.152Z,99588
2018-05-08T18:11:21.506Z,99577
2018-05-08T18:13:50.998Z,99591
2018-05-08T18:16:20.054Z,99586
2018-05-08T18:18:49.605Z,99584
2018-05-08T18:21:19.970Z,99580
2018-05-08T18:23:49.587Z,99580
2018-05-08T18:26:18.523Z,99570
2018-05-08T18:28:47.786Z,99576
2018-05-08T18:31:16.241Z,99577
2018-05-08T18:33:45.904Z,99576
2018-05-08T18:36:14.681Z,99578
2018-05-08T18:38:43.934Z,99586
2018-05-08T18:41:13.419Z,99581
2018-05-08T18:43:43.294Z,99583
2018-05-08T18:46:14.742Z,99588
2018-05-08T18:48:46.355Z,99592
2018-05-08T18:51:16.676Z,99595
2018-05-08T18:53:46.745Z,99589
2018-05-08T18:56:17.401Z,99589
2018-05-08T18:58:47.949Z,99590
2018-05-08T19:01:17.872Z,99564
2018-05-08T19:03:49.945Z,99577
2018-05-08T19:06:20.203Z,99590
2018-05-08T19:08:49.019Z,99601
2018-05-08T19:11:23.110Z,99598
2018-05-08T19:13:51.816Z,99590
2018-05-08T19:16:21.750Z,99598
2018-05-08T19:18:55.921Z,99604
2018-05-08T19:21:24.816Z,99610
2018-05-08T19:23:59.299Z,99602
2018-05-08T19:26:28.056Z,99611
2018-05-08T19:32:06.777Z,99608
2018-05-08T19:34:41.287Z,99609
2018-05-08T19:37:15.703Z,99606
2018-05-08T19:39:44.610Z,99609
2018-05-08T19:42:13.296Z,99618
2018-05-08T19:44:42.657Z,99626
2018-05-08T19:47:11.215Z,99626
2018-05-08T19:49:40.038Z,99626
2018-05-08T19:52:08.483Z,99626
2018-05-08T19:54:39.454Z,99630
2018-05-08T19:57:08.300Z,99630
2018-05-08T19:59:37.365Z,99625
2018-05-08T20:02:06.290Z,99632
2018-05-08T20:04:34.969Z,99629
2018-05-08T20:07:03.935Z,99620
2018-05-08T20:09:32.647Z,99648
2018-05-08T20:12:01.433Z,99643
2018-05-08T20:14:30.200Z,99643
2018-05-08T20:16:58.677Z,99648
2018-05-08T20:19:27.098Z,99653
2018-05-08T20:21:56.049Z,99655
2018-05-08T20:24:24.823Z,99648
2018-05-08T20:26:54.734Z,99651
2018-05-08T20:29:23.388Z,99660
2018-05-08T20:31:52.571Z,99655
2018-05-08T20:34:21.074Z,99668
2018-05-08T20:36:49.509Z,99671
2018-05-08T20:39:18.321Z,99669
2018-05-08T20:41:46.910Z,99677
2018-05-08T20:44:16.548Z,99685
2018-05-08T20:46:45.558Z,99676
2018-05-08T20:49:14.185Z,99681
2018-05-08T20:51:43.079Z,99681
2018-05-08T20:54:11.847Z,99689
2018-05-08T20:56:40.508Z,99682
2018-05-08T20:59:08.710Z,99690
2018-05-08T21:01:36.945Z,99685
2018-05-08T21:04:05.117Z,99684
2018-05-08T21:06:33.341Z,99676
2018-05-08T21:09:01.544Z,99677
2018-05-08T21:11:29.734Z,99674
2018-05-08T21:13:58.849Z,99679
2018-05-08T21:16:27.066Z,99690
2018-05-08T21:18:55.321Z,99672
2018-05-08T21:21:23.545Z,99685
2018-05-08T21:23:51.725Z,99684
2018-05-08T21:26:19.912Z,99685
2018-05-08T21:28:53.604Z,99687
2018-05-08T21:31:22.614Z,99673
2018-05-08T21:33:50.829Z,99680
2018-05-08T21:36:19.070Z,99674
2018-05-08T21:38:47.259Z,99665
2018-05-08T21:41:15.460Z,99666
2018-05-08T21:43:43.664Z,99675
2018-05-08T21:46:11.865Z,99683
2018-05-08T21:48:40.878Z,99674
2018-05-08T21:51:09.083Z,99684
2018-05-08T21:53:37.279Z,99695
2018-05-08T21:56:05.488Z,99684
2018-05-08T21:58:33.703Z,99686
2018-05-08T22:01:01.930Z,99692
2018-05-08T22:03:30.146Z,99687
2018-05-08T22:05:58.345Z,99686
2018-05-08T22:08:26.529Z,99713
2018-05-08T22:10:55.475Z,99701
2018-05-08T22:13:23.700Z,99689
2018-05-08T22:15:52.778Z,99686
2018-05-08T22:18:21.039Z,99678
2018-05-08T22:20:49.268Z,99694
2018-05-08T22:23:17.484Z,99675
2018-05-08T22:25:45.709Z,99687
2018-05-08T22:28:14.689Z,99679
2018-05-08T22:30:43.664Z,99682
2018-05-08T22:33:11.880Z,99687
2018-05-08T22:35:40.081Z,99685
2018-05-08T22:38:08.303Z,99695
2018-05-08T22:40:36.482Z,99683
2018-05-08T22:43:04.680Z,99688
2018-05-08T22:45:32.887Z,99672
2018-05-08T22:48:01.074Z,99670
2018-05-08T22:50:29.277Z,99679
2018-05-08T22:52:57.560Z,99673
2018-05-08T22:55:25.697Z,99675
2018-05-08T22:57:53.941Z,99678
2018-05-08T23:00:22.252Z,99679
2018-05-08T23:02:50.432Z,99677
2018-05-08T23:05:18.659Z,99676
2018-05-08T23:07:46.831Z,99689
2018-05-08T23:10:15.008Z,99694
2018-05-08T23:12:43.218Z,99690
2018-05-08T23:15:11.396Z,99702
2018-05-08T23:17:39.582Z,99705
2018-05-08T23:20:07.808Z,99705
2018-05-08T23:22:36.003Z,99703
2018-05-08T23:25:04.229Z,99705
2018-05-08T23:27:32.457Z,99710
2018-05-08T23:30:00.834Z,99699
2018-05-08T23:32:29.028Z,99701
2018-05-08T23:34:57.238Z,99697
2018-05-08T23:37:26.196Z,99708
2018-05-08T23:39:54.409Z,99708
2018-05-08T23:42:22.634Z,99707
2018-05-08T23:44:50.818Z,99710
2018-05-08T23:47:19.013Z,99708
2018-05-08T23:49:47.221Z,99709
2018-05-08T23:52:15.426Z,99701
2018-05-08T23:54:44.338Z,99697
2018-05-08T23:57:13.332Z,99705
2018-05-08T23:59:41.539Z,99702
